Time,TemperatureF,DewpointF,PressureIn,WindDirection,WindDirectionDegrees,WindSpeedMPH,WindSpeedGustMPH,Humidity,HourlyPrecipIn,Conditions,Clouds,dailyrainin,SoftwareType,DateUTC
2013-12-17 00:03:00,28.7,26.1,30.17,SSW,202,0.0,4.0,90,0.00,,,0.00,Weather View 32 v70,2013-12-17 06:03:00,
2013-12-17 00:08:00,28.7,26.7,30.17,NE,45,2.0,3.0,92,0.00,,,0.00,Weather View 32 v70,2013-12-17 06:08:00,
2013-12-17 00:13:00,28.6,26.3,30.17,NE,45,1.0,2.0,91,0.00,,,0.00,Weather View 32 v70,2013-12-17 06:13:00,
2013-12-17 00:18:00,28.3,26.3,30.17,West,270,0.0,2.0,92,0.00,,,0.00,Weather View 32 v70,2013-12-17 06:18:00,
2013-12-17 00:23:00,28.5,26.7,30.17,West,270,0.0,2.0,93,0.00,,,0.00,Weather View 32 v70,2013-12-17 06:23:00,
2013-12-17 00:28:00,28.5,26.2,30.16,West,270,0.0,2.0,91,0.00,,,0.00,Weather View 32 v70,2013-12-17 06:28:00,
2013-12-17 00:33:00,28.0,25.7,30.16,West,270,0.0,2.0,91,0.00,,,0.00,Weather View 32 v70,2013-12-17 06:33:00,
2013-12-17 00:38:00,27.1,24.8,30.16,North,360,0.0,2.0,91,0.00,,,0.00,Weather View 32 v70,2013-12-17 06:38:00,
2013-12-17 00:43:00,26.6,24.9,30.16,North,360,0.0,2.0,93,0.00,,,0.00,Weather View 32 v70,2013-12-17 06:43:00,
2013-12-17 00:48:00,25.8,24.1,30.17,North,360,0.0,2.0,93,0.00,,,0.00,Weather View 32 v70,2013-12-17 06:48:00,
2013-12-17 00:53:00,25.5,24.0,30.17,NE,45,2.0,2.0,94,0.00,,,0.00,Weather View 32 v70,2013-12-17 06:53:00,
2013-12-17 00:58:00,25.2,23.7,30.17,NE,45,1.0,2.0,94,0.00,,,0.00,Weather View 32 v70,2013-12-17 06:58:00,
2013-12-17 01:03:00,25.3,23.8,30.17,NE,45,2.0,2.0,94,0.00,,,0.00,Weather View 32 v70,2013-12-17 07:03:00,
2013-12-17 01:08:00,25.8,24.3,30.17,NE,45,0.0,2.0,94,0.00,,,0.00,Weather View 32 v70,2013-12-17 07:08:00,
2013-12-17 01:13:00,25.9,24.4,30.17,NE,45,0.0,2.0,94,0.00,,,0.00,Weather View 32 v70,2013-12-17 07:13:00,
2013-12-17 01:18:00,25.8,24.3,30.16,NE,45,2.0,2.0,94,0.00,,,0.00,Weather View 32 v70,2013-12-17 07:18:00,
2013-12-17 01:23:00,25.9,24.4,30.16,NE,45,0.0,2.0,94,0.00,,,0.00,Weather View 32 v70,2013-12-17 07:23:00,
2013-12-17 01:28:00,26.1,24.6,30.16,NE,45,0.0,2.0,94,0.00,,,0.00,Weather View 32 v70,2013-12-17 07:28:00,
2013-12-17 01:33:00,26.2,24.7,30.16,NE,45,1.0,2.0,94,0.00,,,0.00,Weather View 32 v70,2013-12-17 07:33:00,
2013-12-17 01:38:00,25.9,24.4,30.16,NE,45,2.0,2.0,94,0.00,,,0.00,Weather View 32 v70,2013-12-17 07:38:00,
2013-12-17 01:43:00,26.2,24.7,30.16,North,360,1.0,2.0,94,0.00,,,0.00,Weather View 32 v70,2013-12-17 07:43:00,
2013-12-17 01:48:00,26.4,24.9,30.16,North,360,1.0,2.0,94,0.00,,,0.00,Weather View 32 v70,2013-12-17 07:48:00,
2013-12-17 01:53:00,26.2,24.7,30.15,North,360,1.0,2.0,94,0.00,,,0.00,Weather View 32 v70,2013-12-17 07:53:00,
2013-12-17 01:58:00,26.2,24.7,30.16,NW,315,2.0,4.0,94,0.00,,,0.00,Weather View 32 v70,2013-12-17 07:58:00,
2013-12-17 02:03:00,26.5,24.8,30.16,NW,315,1.0,4.0,93,0.00,,,0.00,Weather View 32 v70,2013-12-17 08:03:00,
2013-12-17 02:08:00,26.6,25.1,30.16,NW,315,1.0,4.0,94,0.00,,,0.00,Weather View 32 v70,2013-12-17 08:08:00,
2013-12-17 02:13:00,26.9,25.1,30.16,West,270,1.0,4.0,93,0.00,,,0.00,Weather View 32 v70,2013-12-17 08:13:00,
2013-12-17 02:18:00,27.1,25.1,30.16,NW,315,2.0,4.0,92,0.00,,,0.00,Weather View 32 v70,2013-12-17 08:18:00,
2013-12-17 02:23:00,27.0,25.0,30.16,NW,315,2.0,4.0,92,0.00,,,0.00,Weather View 32 v70,2013-12-17 08:23:00,
2013-12-17 02:28:00,26.9,24.6,30.16,West,270,1.0,4.0,91,0.00,,,0.00,Weather View 32 v70,2013-12-17 08:28:00,
2013-12-17 02:33:00,26.9,24.6,30.16,West,270,1.0,4.0,91,0.00,,,0.00,Weather View 32 v70,2013-12-17 08:33:00,
2013-12-17 02:38:00,27.1,24.8,30.16,West,270,4.0,6.0,91,0.00,,,0.00,Weather View 32 v70,2013-12-17 08:38:00,
2013-12-17 02:43:00,27.5,25.0,30.16,West,270,6.0,6.0,90,0.00,,,0.00,Weather View 32 v70,2013-12-17 08:43:00,
2013-12-17 02:48:00,28.1,25.3,30.16,SW,225,2.0,7.0,89,0.00,,,0.00,Weather View 32 v70,2013-12-17 08:48:00,
2013-12-17 02:53:00,28.7,25.6,30.16,West,270,2.0,7.0,88,0.00,,,0.00,Weather View 32 v70,2013-12-17 08:53:00,
2013-12-17 02:58:00,29.2,25.8,30.16,West,270,3.0,8.0,87,0.00,,,0.00,Weather View 32 v70,2013-12-17 08:58:00,
2013-12-17 03:03:00,29.4,26.0,30.16,West,270,6.0,8.0,87,0.00,,,0.00,Weather View 32 v70,2013-12-17 09:03:00,
2013-12-17 03:08:00,30.0,26.0,30.17,West,270,5.0,12.0,85,0.00,,,0.00,Weather View 32 v70,2013-12-17 09:08:00,
2013-12-17 03:13:00,30.2,26.5,30.17,NNW,337,7.0,12.0,86,0.00,,,0.00,Weather View 32 v70,2013-12-17 09:13:00,
2013-12-17 03:18:00,29.5,25.5,30.18,NNW,337,4.0,12.0,85,0.00,,,0.00,Weather View 32 v70,2013-12-17 09:18:00,
2013-12-17 03:23:00,28.9,25.2,30.18,WNW,292,3.0,12.0,86,0.00,,,0.00,Weather View 32 v70,2013-12-17 09:23:00,
2013-12-17 03:28:00,28.7,25.3,30.17,West,270,2.0,12.0,87,0.00,,,0.00,Weather View 32 v70,2013-12-17 09:28:00,
2013-12-17 03:33:00,28.9,26.1,30.17,WNW,292,4.0,12.0,89,0.00,,,0.00,Weather View 32 v70,2013-12-17 09:33:00,
2013-12-17 03:38:00,29.5,26.4,30.16,NW,315,3.0,12.0,88,0.00,,,0.00,Weather View 32 v70,2013-12-17 09:38:00,
2013-12-17 03:43:00,29.4,26.3,30.17,NNW,337,4.0,12.0,88,0.00,,,0.00,Weather View 32 v70,2013-12-17 09:43:00,
2013-12-17 03:48:00,28.9,25.8,30.16,NW,315,2.0,12.0,88,0.00,,,0.00,Weather View 32 v70,2013-12-17 09:48:00,
2013-12-17 03:53:00,28.3,24.9,30.17,NE,45,2.0,12.0,87,0.00,,,0.00,Weather View 32 v70,2013-12-17 09:53:00,
2013-12-17 03:58:00,27.9,25.3,30.17,NW,315,0.0,12.0,90,0.00,,,0.00,Weather View 32 v70,2013-12-17 09:58:00,
2013-12-17 04:03:00,27.2,24.7,30.17,NW,315,0.0,12.0,90,0.00,,,0.00,Weather View 32 v70,2013-12-17 10:03:00,
2013-12-17 04:08:00,26.9,24.6,30.17,NW,315,0.0,10.0,91,0.00,,,0.00,Weather View 32 v70,2013-12-17 10:08:00,
2013-12-17 04:13:00,26.9,24.9,30.17,NW,315,1.0,9.0,92,0.00,,,0.00,Weather View 32 v70,2013-12-17 10:13:00,
2013-12-17 04:18:00,27.5,25.7,30.17,West,270,2.0,8.0,93,0.00,,,0.00,Weather View 32 v70,2013-12-17 10:18:00,
2013-12-17 04:23:00,27.4,24.9,30.17,North,360,0.0,8.0,90,0.00,,,0.00,Weather View 32 v70,2013-12-17 10:23:00,
2013-12-17 04:28:00,27.1,24.8,30.17,North,360,0.0,8.0,91,0.00,,,0.00,Weather View 32 v70,2013-12-17 10:28:00,
2013-12-17 04:33:00,26.9,24.9,30.17,North,360,0.0,8.0,92,0.00,,,0.00,Weather View 32 v70,2013-12-17 10:33:00,
2013-12-17 04:38:00,26.8,25.0,30.17,North,360,0.0,6.0,93,0.00,,,0.00,Weather View 32 v70,2013-12-17 10:38:00,
2013-12-17 04:43:00,26.8,25.3,30.17,West,270,0.0,4.0,94,0.00,,,0.00,Weather View 32 v70,2013-12-17 10:43:00,
2013-12-17 04:48:00,27.4,25.9,30.17,West,270,2.0,4.0,94,0.00,,,0.00,Weather View 32 v70,2013-12-17 10:48:00,
2013-12-17 04:53:00,27.9,26.1,30.18,West,270,1.0,3.0,93,0.00,,,0.00,Weather View 32 v70,2013-12-17 10:53:00,
2013-12-17 04:58:00,28.5,26.5,30.18,West,270,2.0,3.0,92,0.00,,,0.00,Weather View 32 v70,2013-12-17 10:58:00,
2013-12-17 05:04:00,28.9,26.9,30.18,WNW,292,1.0,4.0,92,0.00,,,0.00,Weather View 32 v70,2013-12-17 11:04:00,
2013-12-17 05:09:00,28.9,26.3,30.18,WNW,292,1.0,4.0,90,0.00,,,0.00,Weather View 32 v70,2013-12-17 11:09:00,
2013-12-17 05:14:00,28.9,26.6,30.18,West,270,0.0,4.0,91,0.00,,,0.00,Weather View 32 v70,2013-12-17 11:14:00,
2013-12-17 05:19:00,29.3,26.7,30.18,West,270,1.0,4.0,90,0.00,,,0.00,Weather View 32 v70,2013-12-17 11:19:00,
2013-12-17 05:24:00,29.2,26.4,30.18,West,270,0.0,4.0,89,0.00,,,0.00,Weather View 32 v70,2013-12-17 11:24:00,
2013-12-17 05:29:00,29.1,26.5,30.18,NW,315,2.0,4.0,90,0.00,,,0.00,Weather View 32 v70,2013-12-17 11:29:00,
2013-12-17 05:34:00,29.3,26.7,30.18,NW,315,4.0,4.0,90,0.00,,,0.00,Weather View 32 v70,2013-12-17 11:34:00,
2013-12-17 05:39:00,29.4,26.6,30.19,West,270,2.0,8.0,89,0.00,,,0.00,Weather View 32 v70,2013-12-17 11:39:00,
2013-12-17 05:44:00,29.7,26.6,30.19,WNW,292,3.0,8.0,88,0.00,,,0.00,Weather View 32 v70,2013-12-17 11:44:00,
2013-12-17 05:49:00,30.3,26.9,30.19,NW,315,5.0,8.0,87,0.00,,,0.00,Weather View 32 v70,2013-12-17 11:49:00,
2013-12-17 05:54:00,30.7,27.0,30.19,West,270,3.0,8.0,86,0.00,,,0.00,Weather View 32 v70,2013-12-17 11:54:00,
2013-12-17 05:59:00,30.7,26.7,30.20,SW,225,1.0,8.0,85,0.00,,,0.00,Weather View 32 v70,2013-12-17 11:59:00,
2013-12-17 06:04:00,30.9,26.6,30.19,West,270,10.0,10.0,84,0.00,,,0.00,Weather View 32 v70,2013-12-17 12:04:00,
2013-12-17 06:09:00,31.6,27.0,30.20,West,270,6.0,10.0,83,0.00,,,0.00,Weather View 32 v70,2013-12-17 12:09:00,
2013-12-17 06:14:00,31.9,27.0,30.20,WNW,292,9.0,10.0,82,0.00,,,0.00,Weather View 32 v70,2013-12-17 12:14:00,
2013-12-17 06:19:00,32.3,26.8,30.20,West,270,6.0,11.0,80,0.00,,,0.00,Weather View 32 v70,2013-12-17 12:19:00,
2013-12-17 06:24:00,32.7,26.6,30.20,West,270,7.0,12.0,78,0.00,,,0.00,Weather View 32 v70,2013-12-17 12:24:00,
2013-12-17 06:29:00,32.9,26.8,30.21,West,270,5.0,12.0,78,0.00,,,0.00,Weather View 32 v70,2013-12-17 12:29:00,
2013-12-17 06:34:00,33.1,26.7,30.21,West,270,9.0,12.0,77,0.00,,,0.00,Weather View 32 v70,2013-12-17 12:34:00,
2013-12-17 06:39:00,33.4,26.6,30.21,West,270,9.0,14.0,76,0.00,,,0.00,Weather View 32 v70,2013-12-17 12:39:00,
2013-12-17 06:44:00,33.5,26.7,30.21,West,270,9.0,14.0,76,0.00,,,0.00,Weather View 32 v70,2013-12-17 12:44:00,
2013-12-17 06:49:00,33.5,26.7,30.22,WNW,292,10.0,16.0,76,0.00,,,0.00,Weather View 32 v70,2013-12-17 12:49:00,
2013-12-17 06:54:00,33.6,26.8,30.22,West,270,11.0,16.0,76,0.00,,,0.00,Weather View 32 v70,2013-12-17 12:54:00,
2013-12-17 06:59:00,33.8,26.7,30.22,West,270,11.0,16.0,75,0.00,,,0.00,Weather View 32 v70,2013-12-17 12:59:00,
2013-12-17 07:04:00,33.9,26.8,30.22,WNW,292,11.0,16.0,75,0.00,,,0.00,Weather View 32 v70,2013-12-17 13:04:00,
2013-12-17 07:09:00,33.7,26.9,30.22,West,270,6.0,16.0,76,0.00,,,0.00,Weather View 32 v70,2013-12-17 13:09:00,
2013-12-17 07:14:00,33.5,27.1,30.22,West,270,9.0,16.0,77,0.00,,,0.00,Weather View 32 v70,2013-12-17 13:14:00,
2013-12-17 07:19:00,33.3,26.9,30.23,West,270,8.0,16.0,77,0.00,,,0.00,Weather View 32 v70,2013-12-17 13:19:00,
2013-12-17 07:24:00,32.9,26.8,30.23,West,270,5.0,16.0,78,0.00,,,0.00,Weather View 32 v70,2013-12-17 13:24:00,
2013-12-17 07:29:00,32.6,26.8,30.23,WNW,292,6.0,16.0,79,0.00,,,0.00,Weather View 32 v70,2013-12-17 13:29:00,
2013-12-17 07:34:00,32.4,26.6,30.24,West,270,12.0,16.0,79,0.00,,,0.00,Weather View 32 v70,2013-12-17 13:34:00,
2013-12-17 07:39:00,32.5,26.4,30.24,West,270,12.0,16.0,78,0.00,,,0.00,Weather View 32 v70,2013-12-17 13:39:00,
2013-12-17 07:44:00,32.6,26.5,30.24,WNW,292,9.0,17.0,78,0.00,,,0.00,Weather View 32 v70,2013-12-17 13:44:00,
2013-12-17 07:49:00,32.8,26.7,30.24,West,270,6.0,19.0,78,0.00,,,0.00,Weather View 32 v70,2013-12-17 13:49:00,
2013-12-17 07:54:00,33.0,26.6,30.24,West,270,15.0,19.0,77,0.00,,,0.00,Weather View 32 v70,2013-12-17 13:54:00,
2013-12-17 07:59:00,33.2,26.8,30.24,WNW,292,11.0,23.0,77,0.00,,,0.00,Weather View 32 v70,2013-12-17 13:59:00,
2013-12-17 08:04:00,33.2,26.8,30.24,West,270,4.0,23.0,77,0.00,,,0.00,Weather View 32 v70,2013-12-17 14:04:00,
2013-12-17 08:09:00,33.0,26.6,30.25,WNW,292,9.0,23.0,77,0.00,,,0.00,Weather View 32 v70,2013-12-17 14:09:00,
2013-12-17 08:14:00,32.7,26.3,30.25,West,270,10.0,24.0,77,0.00,,,0.00,Weather View 32 v70,2013-12-17 14:14:00,
2013-12-17 08:19:00,32.4,26.0,30.26,West,270,11.0,24.0,77,0.00,,,0.00,Weather View 32 v70,2013-12-17 14:19:00,
2013-12-17 08:24:00,31.9,25.8,30.26,WNW,292,10.0,24.0,78,0.00,,,0.00,Weather View 32 v70,2013-12-17 14:24:00,
2013-12-17 08:29:00,31.6,25.8,30.26,West,270,10.0,24.0,79,0.00,,,0.00,Weather View 32 v70,2013-12-17 14:29:00,
2013-12-17 08:32:00,31.6,25.8,30.26,WNW,292,12.0,24.0,79,0.00,,,0.00,Weather View 32 v70,2013-12-17 14:32:00,
2013-12-17 08:37:00,31.5,25.7,30.26,WNW,292,14.0,24.0,79,0.00,,,0.00,Weather View 32 v70,2013-12-17 14:37:00,
2013-12-17 08:42:00,31.5,25.7,30.27,WNW,292,12.0,24.0,79,0.00,,,0.00,Weather View 32 v70,2013-12-17 14:42:00,
2013-12-17 08:47:00,31.3,25.8,30.27,NW,315,9.0,24.0,80,0.00,,,0.00,Weather View 32 v70,2013-12-17 14:47:00,
2013-12-17 08:52:00,31.4,25.9,30.27,West,270,12.0,24.0,80,0.00,,,0.00,Weather View 32 v70,2013-12-17 14:52:00,
2013-12-17 08:57:00,31.4,25.9,30.27,WNW,292,12.0,24.0,80,0.00,,,0.00,Weather View 32 v70,2013-12-17 14:57:00,
2013-12-17 09:02:00,31.6,25.8,30.28,West,270,5.0,24.0,79,0.00,,,0.00,Weather View 32 v70,2013-12-17 15:02:00,
2013-12-17 09:07:00,31.5,26.0,30.28,WNW,292,14.0,24.0,80,0.00,,,0.00,Weather View 32 v70,2013-12-17 15:07:00,
2013-12-17 09:12:00,31.6,25.8,30.28,WNW,292,15.0,21.0,79,0.00,,,0.00,Weather View 32 v70,2013-12-17 15:12:00,
2013-12-17 09:17:00,31.7,25.6,30.28,West,270,11.0,21.0,78,0.00,,,0.00,Weather View 32 v70,2013-12-17 15:17:00,
2013-12-17 09:22:00,31.6,25.5,30.29,WSW,247,5.0,21.0,78,0.00,,,0.00,Weather View 32 v70,2013-12-17 15:22:00,
2013-12-17 09:27:00,31.7,25.6,30.29,NW,315,7.0,24.0,78,0.00,,,0.00,Weather View 32 v70,2013-12-17 15:27:00,
2013-12-17 09:32:00,31.6,25.5,30.29,WNW,292,7.0,24.0,78,0.00,,,0.00,Weather View 32 v70,2013-12-17 15:32:00,
2013-12-17 09:37:00,31.6,25.2,30.29,West,270,10.0,24.0,77,0.00,,,0.00,Weather View 32 v70,2013-12-17 15:37:00,
2013-12-17 09:42:00,31.6,25.2,30.28,West,270,18.0,24.0,77,0.00,,,0.00,Weather View 32 v70,2013-12-17 15:42:00,
2013-12-17 09:47:00,31.6,24.9,30.30,West,270,11.0,24.0,76,0.00,,,0.00,Weather View 32 v70,2013-12-17 15:47:00,
2013-12-17 09:52:00,31.7,24.7,30.30,NW,315,16.0,24.0,75,0.00,,,0.00,Weather View 32 v70,2013-12-17 15:52:00,
2013-12-17 09:57:00,31.7,24.0,30.29,West,270,11.0,26.0,73,0.00,,,0.00,Weather View 32 v70,2013-12-17 15:57:00,
2013-12-17 10:02:00,31.8,24.1,30.28,West,270,17.0,26.0,73,0.00,,,0.00,Weather View 32 v70,2013-12-17 16:02:00,
2013-12-17 10:07:00,31.9,23.6,30.29,WNW,292,16.0,26.0,71,0.00,,,0.00,Weather View 32 v70,2013-12-17 16:07:00,
2013-12-17 10:12:00,31.9,23.6,30.30,West,270,14.0,27.0,71,0.00,,,0.00,Weather View 32 v70,2013-12-17 16:12:00,
2013-12-17 10:17:00,31.8,23.8,30.30,WNW,292,20.0,27.0,72,0.00,,,0.00,Weather View 32 v70,2013-12-17 16:17:00,
2013-12-17 10:22:00,31.8,23.5,30.30,NW,315,11.0,27.0,71,0.00,,,0.00,Weather View 32 v70,2013-12-17 16:22:00,
2013-12-17 10:27:00,31.8,22.8,30.31,WNW,292,13.0,27.0,69,0.00,,,0.00,Weather View 32 v70,2013-12-17 16:27:00,
2013-12-17 10:32:00,31.9,22.9,30.31,NW,315,17.0,27.0,69,0.00,,,0.00,Weather View 32 v70,2013-12-17 16:32:00,
2013-12-17 10:37:00,31.9,22.9,30.31,NW,315,16.0,27.0,69,0.00,,,0.00,Weather View 32 v70,2013-12-17 16:37:00,
2013-12-17 10:42:00,31.9,22.9,30.32,WNW,292,8.0,27.0,69,0.00,,,0.00,Weather View 32 v70,2013-12-17 16:42:00,
2013-12-17 10:47:00,32.0,23.0,30.31,West,270,11.0,27.0,69,0.00,,,0.00,Weather View 32 v70,2013-12-17 16:47:00,
2013-12-17 10:52:00,32.2,22.5,30.31,WNW,292,9.0,27.0,67,0.00,,,0.00,Weather View 32 v70,2013-12-17 16:52:00,
2013-12-17 10:57:00,32.3,22.6,30.31,South,180,4.0,27.0,67,0.00,,,0.00,Weather View 32 v70,2013-12-17 16:57:00,
2013-12-17 11:02:00,32.4,21.9,30.31,WNW,292,11.0,27.0,65,0.00,,,0.00,Weather View 32 v70,2013-12-17 17:02:00,
2013-12-17 11:07:00,32.6,22.1,30.31,NW,315,14.0,27.0,65,0.00,,,0.00,Weather View 32 v70,2013-12-17 17:07:00,
2013-12-17 11:12:00,32.7,22.6,30.32,West,270,4.0,26.0,66,0.00,,,0.00,Weather View 32 v70,2013-12-17 17:12:00,
2013-12-17 11:17:00,32.8,22.0,30.31,WNW,292,17.0,26.0,64,0.00,,,0.00,Weather View 32 v70,2013-12-17 17:17:00,
2013-12-17 11:22:00,32.9,22.4,30.32,WNW,292,9.0,26.0,65,0.00,,,0.00,Weather View 32 v70,2013-12-17 17:22:00,
2013-12-17 11:27:00,32.9,22.4,30.30,WNW,292,14.0,26.0,65,0.00,,,0.00,Weather View 32 v70,2013-12-17 17:27:00,
2013-12-17 11:32:00,32.9,22.4,30.31,WNW,292,9.0,26.0,65,0.00,,,0.00,Weather View 32 v70,2013-12-17 17:32:00,
2013-12-17 11:37:00,32.9,22.4,30.31,WNW,292,20.0,26.0,65,0.00,,,0.00,Weather View 32 v70,2013-12-17 17:37:00,
2013-12-17 11:42:00,32.9,22.8,30.30,WNW,292,15.0,26.0,66,0.00,,,0.00,Weather View 32 v70,2013-12-17 17:42:00,
2013-12-17 11:47:00,32.9,22.4,30.31,WNW,292,14.0,29.0,65,0.00,,,0.00,Weather View 32 v70,2013-12-17 17:47:00,
2013-12-17 11:52:00,33.2,22.7,30.31,West,270,14.0,29.0,65,0.00,,,0.00,Weather View 32 v70,2013-12-17 17:52:00,
2013-12-17 11:57:00,33.3,22.1,30.31,NW,315,24.0,29.0,63,0.00,,,0.00,Weather View 32 v70,2013-12-17 17:57:00,
2013-12-17 12:02:00,33.3,22.1,30.30,West,270,10.0,29.0,63,0.00,,,0.00,Weather View 32 v70,2013-12-17 18:02:00,
2013-12-17 12:07:00,33.3,21.7,30.31,WNW,292,9.0,29.0,62,0.00,,,0.00,Weather View 32 v70,2013-12-17 18:07:00,
2013-12-17 12:12:00,33.4,22.2,30.29,NW,315,24.0,29.0,63,0.00,,,0.00,Weather View 32 v70,2013-12-17 18:12:00,
2013-12-17 12:17:00,33.3,22.1,30.31,WNW,292,13.0,29.0,63,0.00,,,0.00,Weather View 32 v70,2013-12-17 18:17:00,
2013-12-17 12:22:00,33.3,21.7,30.30,WSW,247,7.0,29.0,62,0.00,,,0.00,Weather View 32 v70,2013-12-17 18:22:00,
2013-12-17 12:27:00,33.5,22.6,30.31,West,270,12.0,29.0,64,0.00,,,0.00,Weather View 32 v70,2013-12-17 18:27:00,
2013-12-17 12:32:00,33.3,21.3,30.30,NW,315,11.0,29.0,61,0.00,,,0.00,Weather View 32 v70,2013-12-17 18:32:00,
2013-12-17 12:37:00,33.7,20.9,30.30,WNW,292,12.0,29.0,59,0.00,,,0.00,Weather View 32 v70,2013-12-17 18:37:00,
2013-12-17 12:42:00,33.7,20.9,30.30,West,270,8.0,29.0,59,0.00,,,0.00,Weather View 32 v70,2013-12-17 18:42:00,
2013-12-17 12:47:00,33.9,21.1,30.30,WNW,292,11.0,29.0,59,0.00,,,0.00,Weather View 32 v70,2013-12-17 18:47:00,
2013-12-17 12:52:00,33.9,21.5,30.30,WNW,292,9.0,29.0,60,0.00,,,0.00,Weather View 32 v70,2013-12-17 18:52:00,
2013-12-17 12:57:00,34.1,20.4,30.28,NW,315,21.0,29.0,57,0.00,,,0.00,Weather View 32 v70,2013-12-17 18:57:00,
2013-12-17 13:02:00,33.9,19.4,30.28,West,270,7.0,29.0,55,0.00,,,0.00,Weather View 32 v70,2013-12-17 19:02:00,
2013-12-17 13:07:00,33.9,20.3,30.28,West,270,10.0,29.0,57,0.00,,,0.00,Weather View 32 v70,2013-12-17 19:07:00,
2013-12-17 13:12:00,34.0,20.8,30.28,WNW,292,9.0,29.0,58,0.00,,,0.00,Weather View 32 v70,2013-12-17 19:12:00,
2013-12-17 13:17:00,33.7,20.9,30.27,WNW,292,14.0,29.0,59,0.00,,,0.00,Weather View 32 v70,2013-12-17 19:17:00,
2013-12-17 13:22:00,33.8,19.8,30.28,WSW,247,2.0,29.0,56,0.00,,,0.00,Weather View 32 v70,2013-12-17 19:22:00,
2013-12-17 13:27:00,34.0,18.6,30.28,West,270,16.0,29.0,53,0.00,,,0.00,Weather View 32 v70,2013-12-17 19:27:00,
2013-12-17 13:32:00,34.1,19.6,30.27,WNW,292,16.0,27.0,55,0.00,,,0.00,Weather View 32 v70,2013-12-17 19:32:00,
2013-12-17 13:37:00,34.1,19.6,30.28,NW,315,12.0,27.0,55,0.00,,,0.00,Weather View 32 v70,2013-12-17 19:37:00,
2013-12-17 13:42:00,34.0,19.1,30.27,WNW,292,15.0,27.0,54,0.00,,,0.00,Weather View 32 v70,2013-12-17 19:42:00,
2013-12-17 13:47:00,34.2,19.7,30.28,WNW,292,16.0,27.0,55,0.00,,,0.00,Weather View 32 v70,2013-12-17 19:47:00,
2013-12-17 13:52:00,34.4,19.0,30.28,NW,315,14.0,27.0,53,0.00,,,0.00,Weather View 32 v70,2013-12-17 19:52:00,
2013-12-17 13:57:00,34.3,19.8,30.28,WNW,292,9.0,27.0,55,0.00,,,0.00,Weather View 32 v70,2013-12-17 19:57:00,
2013-12-17 14:02:00,34.6,19.2,30.28,WNW,292,9.0,25.0,53,0.00,,,0.00,Weather View 32 v70,2013-12-17 20:02:00,
2013-12-17 14:07:00,34.7,18.9,30.28,West,270,9.0,25.0,52,0.00,,,0.00,Weather View 32 v70,2013-12-17 20:07:00,
2013-12-17 14:12:00,34.5,18.7,30.28,WNW,292,17.0,25.0,52,0.00,,,0.00,Weather View 32 v70,2013-12-17 20:12:00,
2013-12-17 14:17:00,34.5,18.7,30.28,NW,315,14.0,25.0,52,0.00,,,0.00,Weather View 32 v70,2013-12-17 20:17:00,
2013-12-17 14:22:00,34.6,18.3,30.27,WNW,292,9.0,25.0,51,0.00,,,0.00,Weather View 32 v70,2013-12-17 20:22:00,
2013-12-17 14:27:00,34.6,18.3,30.28,NW,315,7.0,25.0,51,0.00,,,0.00,Weather View 32 v70,2013-12-17 20:27:00,
2013-12-17 14:32:00,34.4,18.6,30.28,WNW,292,16.0,25.0,52,0.00,,,0.00,Weather View 32 v70,2013-12-17 20:32:00,
2013-12-17 14:37:00,34.5,18.7,30.27,NW,315,12.0,24.0,52,0.00,,,0.00,Weather View 32 v70,2013-12-17 20:37:00,
2013-12-17 14:42:00,34.6,17.9,30.27,WNW,292,16.0,24.0,50,0.00,,,0.00,Weather View 32 v70,2013-12-17 20:42:00,
2013-12-17 14:47:00,34.4,18.1,30.27,West,270,12.0,24.0,51,0.00,,,0.00,Weather View 32 v70,2013-12-17 20:47:00,
2013-12-17 14:52:00,34.4,19.0,30.27,WNW,292,13.0,24.0,53,0.00,,,0.00,Weather View 32 v70,2013-12-17 20:52:00,
2013-12-17 14:57:00,34.6,18.8,30.27,West,270,5.0,24.0,52,0.00,,,0.00,Weather View 32 v70,2013-12-17 20:57:00,
2013-12-17 15:02:00,34.8,17.1,30.27,WNW,292,13.0,24.0,48,0.00,,,0.00,Weather View 32 v70,2013-12-17 21:02:00,
2013-12-17 15:07:00,34.8,17.6,30.27,WNW,292,12.0,24.0,49,0.00,,,0.00,Weather View 32 v70,2013-12-17 21:07:00,
2013-12-17 15:12:00,34.8,17.1,30.27,WNW,292,10.0,24.0,48,0.00,,,0.00,Weather View 32 v70,2013-12-17 21:12:00,
2013-12-17 15:17:00,34.8,18.0,30.27,WNW,292,12.0,24.0,50,0.00,,,0.00,Weather View 32 v70,2013-12-17 21:17:00,
2013-12-17 15:22:00,34.7,17.5,30.27,WNW,292,13.0,24.0,49,0.00,,,0.00,Weather View 32 v70,2013-12-17 21:22:00,
2013-12-17 15:27:00,34.9,16.7,30.28,WNW,292,10.0,22.0,47,0.00,,,0.00,Weather View 32 v70,2013-12-17 21:27:00,
2013-12-17 15:32:00,34.9,17.2,30.28,WNW,292,9.0,22.0,48,0.00,,,0.00,Weather View 32 v70,2013-12-17 21:32:00,
2013-12-17 15:37:00,34.7,17.9,30.28,WNW,292,8.0,22.0,50,0.00,,,0.00,Weather View 32 v70,2013-12-17 21:37:00,
2013-12-17 15:42:00,34.6,18.3,30.27,WNW,292,8.0,19.0,51,0.00,,,0.00,Weather View 32 v70,2013-12-17 21:42:00,
2013-12-17 15:47:00,34.6,17.9,30.27,WNW,292,9.0,19.0,50,0.00,,,0.00,Weather View 32 v70,2013-12-17 21:47:00,
2013-12-17 15:52:00,34.5,18.2,30.27,NW,315,9.0,19.0,51,0.00,,,0.00,Weather View 32 v70,2013-12-17 21:52:00,
2013-12-17 15:57:00,34.3,18.9,30.28,WNW,292,6.0,19.0,53,0.00,,,0.00,Weather View 32 v70,2013-12-17 21:57:00,
2013-12-17 16:02:00,34.3,19.4,30.28,NW,315,8.0,19.0,54,0.00,,,0.00,Weather View 32 v70,2013-12-17 22:02:00,
2013-12-17 16:07:00,34.1,19.6,30.28,NW,315,4.0,19.0,55,0.00,,,0.00,Weather View 32 v70,2013-12-17 22:07:00,
2013-12-17 16:12:00,33.9,19.8,30.27,NW,315,5.0,17.0,56,0.00,,,0.00,Weather View 32 v70,2013-12-17 22:12:00,
2013-12-17 16:16:00,33.7,20.1,30.27,NW,315,5.0,17.0,57,0.00,,,0.00,Weather View 32 v70,2013-12-17 22:16:00,
2013-12-17 16:21:00,33.5,19.9,30.27,WNW,292,2.0,16.0,57,0.00,,,0.00,Weather View 32 v70,2013-12-17 22:21:00,
2013-12-17 16:26:00,33.5,19.9,30.27,West,270,4.0,16.0,57,0.00,,,0.00,Weather View 32 v70,2013-12-17 22:26:00,
2013-12-17 16:31:00,33.5,19.5,30.27,WNW,292,2.0,16.0,56,0.00,,,0.00,Weather View 32 v70,2013-12-17 22:31:00,
2013-12-17 16:36:00,33.5,19.5,30.27,WNW,292,1.0,16.0,56,0.00,,,0.00,Weather View 32 v70,2013-12-17 22:36:00,
2013-12-17 16:41:00,33.4,19.4,30.26,West,270,2.0,12.0,56,0.00,,,0.00,Weather View 32 v70,2013-12-17 22:41:00,
2013-12-17 16:46:00,33.2,19.6,30.26,West,270,1.0,12.0,57,0.00,,,0.00,Weather View 32 v70,2013-12-17 22:46:00,
2013-12-17 16:51:00,32.8,19.2,30.26,WNW,292,2.0,12.0,57,0.00,,,0.00,Weather View 32 v70,2013-12-17 22:51:00,
2013-12-17 16:56:00,32.4,19.3,30.26,WNW,292,1.0,9.0,58,0.00,,,0.00,Weather View 32 v70,2013-12-17 22:56:00,
2013-12-17 17:01:00,31.9,18.8,30.26,WNW,292,0.0,9.0,58,0.00,,,0.00,Weather View 32 v70,2013-12-17 23:01:00,
2013-12-17 17:06:00,31.4,19.1,30.25,WNW,292,0.0,9.0,60,0.00,,,0.00,Weather View 32 v70,2013-12-17 23:06:00,
2013-12-17 17:11:00,31.0,18.7,30.25,NW,315,0.0,8.0,60,0.00,,,0.00,Weather View 32 v70,2013-12-17 23:11:00,
2013-12-17 17:16:00,30.8,18.5,30.25,NW,315,0.0,7.0,60,0.00,,,0.00,Weather View 32 v70,2013-12-17 23:16:00,
2013-12-17 17:21:00,30.6,18.4,30.25,NW,315,0.0,4.0,60,0.00,,,0.00,Weather View 32 v70,2013-12-17 23:21:00,
2013-12-17 17:26:00,30.3,18.8,30.25,NW,315,0.0,4.0,62,0.00,,,0.00,Weather View 32 v70,2013-12-17 23:26:00,
2013-12-17 17:31:00,29.9,18.8,30.24,NW,315,0.0,4.0,63,0.00,,,0.00,Weather View 32 v70,2013-12-17 23:31:00,
2013-12-17 17:36:00,29.6,18.9,30.24,NW,315,0.0,2.0,64,0.00,,,0.00,Weather View 32 v70,2013-12-17 23:36:00,
2013-12-17 17:41:00,28.9,19.0,30.24,NW,315,0.0,2.0,66,0.00,,,0.00,Weather View 32 v70,2013-12-17 23:41:00,
2013-12-17 17:46:00,28.1,18.2,30.24,NW,315,0.0,2.0,66,0.00,,,0.00,Weather View 32 v70,2013-12-17 23:46:00,
2013-12-17 17:51:00,27.8,18.6,30.24,NW,315,0.0,2.0,68,0.00,,,0.00,Weather View 32 v70,2013-12-17 23:51:00,
2013-12-17 17:56:00,27.7,19.2,30.24,NNW,337,0.0,2.0,70,0.00,,,0.00,Weather View 32 v70,2013-12-17 23:56:00,
2013-12-17 18:01:00,27.6,19.1,30.24,NNW,337,0.0,0.0,70,0.00,,,0.00,Weather View 32 v70,2013-12-18 00:01:00,
2013-12-17 18:06:00,27.5,19.3,30.24,NNW,337,0.0,0.0,71,0.00,,,0.00,Weather View 32 v70,2013-12-18 00:06:00,
2013-12-17 18:11:00,27.5,19.3,30.24,NNW,337,0.0,0.0,71,0.00,,,0.00,Weather View 32 v70,2013-12-18 00:11:00,
2013-12-17 18:16:00,27.1,18.9,30.23,NNW,337,0.0,0.0,71,0.00,,,0.00,Weather View 32 v70,2013-12-18 00:16:00,
2013-12-17 18:21:00,26.7,18.9,30.23,ENE,67,2.0,2.0,72,0.00,,,0.00,Weather View 32 v70,2013-12-18 00:21:00,
2013-12-17 18:26:00,26.2,18.7,30.23,East,90,2.0,2.0,73,0.00,,,0.00,Weather View 32 v70,2013-12-18 00:26:00,
2013-12-17 18:31:00,25.9,18.4,30.24,East,90,2.0,2.0,73,0.00,,,0.00,Weather View 32 v70,2013-12-18 00:31:00,
2013-12-17 18:36:00,25.7,18.2,30.23,East,90,2.0,2.0,73,0.00,,,0.00,Weather View 32 v70,2013-12-18 00:36:00,
2013-12-17 18:41:00,25.6,18.5,30.23,East,90,0.0,2.0,74,0.00,,,0.00,Weather View 32 v70,2013-12-18 00:41:00,
2013-12-17 18:46:00,25.4,18.3,30.23,East,90,0.0,2.0,74,0.00,,,0.00,Weather View 32 v70,2013-12-18 00:46:00,
2013-12-17 18:51:00,25.1,18.0,30.23,East,90,0.0,2.0,74,0.00,,,0.00,Weather View 32 v70,2013-12-18 00:51:00,
2013-12-17 18:56:00,24.7,17.9,30.23,East,90,0.0,2.0,75,0.00,,,0.00,Weather View 32 v70,2013-12-18 00:56:00,
2013-12-17 19:01:00,24.1,17.6,30.24,East,90,0.0,2.0,76,0.00,,,0.00,Weather View 32 v70,2013-12-18 01:01:00,
2013-12-17 19:06:00,23.9,17.7,30.23,SE,135,2.0,2.0,77,0.00,,,0.00,Weather View 32 v70,2013-12-18 01:06:00,
2013-12-17 19:11:00,23.9,17.4,30.23,SSE,157,2.0,2.0,76,0.00,,,0.00,Weather View 32 v70,2013-12-18 01:11:00,
2013-12-17 19:16:00,24.2,17.4,30.23,SE,135,1.0,2.0,75,0.00,,,0.00,Weather View 32 v70,2013-12-18 01:16:00,
2013-12-17 19:21:00,24.5,17.4,30.23,SE,135,2.0,2.0,74,0.00,,,0.00,Weather View 32 v70,2013-12-18 01:21:00,
2013-12-17 19:26:00,24.6,17.2,30.23,SE,135,2.0,3.0,73,0.00,,,0.00,Weather View 32 v70,2013-12-18 01:26:00,
2013-12-17 19:31:00,24.7,17.3,30.23,ESE,112,4.0,4.0,73,0.00,,,0.00,Weather View 32 v70,2013-12-18 01:31:00,
2013-12-17 19:36:00,25.2,17.4,30.23,ESE,112,4.0,7.0,72,0.00,,,0.00,Weather View 32 v70,2013-12-18 01:36:00,
2013-12-17 19:41:00,25.3,17.5,30.22,ESE,112,5.0,7.0,72,0.00,,,0.00,Weather View 32 v70,2013-12-18 01:41:00,
2013-12-17 19:46:00,25.1,17.3,30.22,East,90,4.0,7.0,72,0.00,,,0.00,Weather View 32 v70,2013-12-18 01:46:00,
2013-12-17 19:51:00,25.1,17.3,30.22,ESE,112,4.0,7.0,72,0.00,,,0.00,Weather View 32 v70,2013-12-18 01:51:00,
2013-12-17 19:56:00,25.0,17.2,30.22,ESE,112,2.0,7.0,72,0.00,,,0.00,Weather View 32 v70,2013-12-18 01:56:00,
2013-12-17 20:01:00,24.9,16.8,30.22,ESE,112,2.0,7.0,71,0.00,,,0.00,Weather View 32 v70,2013-12-18 02:01:00,
2013-12-17 20:06:00,24.9,16.8,30.22,SE,135,3.0,7.0,71,0.00,,,0.00,Weather View 32 v70,2013-12-18 02:06:00,
2013-12-17 20:11:00,24.9,16.8,30.22,SE,135,1.0,7.0,71,0.00,,,0.00,Weather View 32 v70,2013-12-18 02:11:00,
2013-12-17 20:16:00,24.4,16.3,30.22,SE,135,2.0,7.0,71,0.00,,,0.00,Weather View 32 v70,2013-12-18 02:16:00,
2013-12-17 20:21:00,24.0,16.3,30.21,ESE,112,3.0,7.0,72,0.00,,,0.00,Weather View 32 v70,2013-12-18 02:21:00,
2013-12-17 20:26:00,24.0,16.3,30.21,ESE,112,2.0,7.0,72,0.00,,,0.00,Weather View 32 v70,2013-12-18 02:26:00,
2013-12-17 20:31:00,24.3,16.3,30.21,SE,135,4.0,7.0,71,0.00,,,0.00,Weather View 32 v70,2013-12-18 02:31:00,
2013-12-17 20:36:00,24.5,16.4,30.20,ESE,112,3.0,6.0,71,0.00,,,0.00,Weather View 32 v70,2013-12-18 02:36:00,
2013-12-17 20:41:00,24.6,16.5,30.20,ESE,112,4.0,5.0,71,0.00,,,0.00,Weather View 32 v70,2013-12-18 02:41:00,
2013-12-17 20:46:00,24.7,16.3,30.19,ESE,112,3.0,5.0,70,0.00,,,0.00,Weather View 32 v70,2013-12-18 02:46:00,
2013-12-17 20:51:00,24.9,16.2,30.19,ESE,112,3.0,6.0,69,0.00,,,0.00,Weather View 32 v70,2013-12-18 02:51:00,
2013-12-17 20:56:00,24.8,16.4,30.19,SE,135,2.0,6.0,70,0.00,,,0.00,Weather View 32 v70,2013-12-18 02:56:00,
2013-12-17 21:01:00,24.7,16.3,30.19,ESE,112,3.0,6.0,70,0.00,,,0.00,Weather View 32 v70,2013-12-18 03:01:00,
2013-12-17 21:06:00,24.6,16.2,30.18,ESE,112,2.0,6.0,70,0.00,,,0.00,Weather View 32 v70,2013-12-18 03:06:00,
2013-12-17 21:12:00,24.7,16.3,30.18,ESE,112,2.0,6.0,70,0.00,,,0.00,Weather View 32 v70,2013-12-18 03:12:00,
2013-12-17 21:17:00,24.6,16.2,30.18,ESE,112,2.0,6.0,70,0.00,,,0.00,Weather View 32 v70,2013-12-18 03:17:00,
2013-12-17 21:22:00,24.3,16.3,30.17,ESE,112,2.0,6.0,71,0.00,,,0.00,Weather View 32 v70,2013-12-18 03:22:00,
2013-12-17 21:27:00,24.4,16.3,30.17,ESE,112,1.0,6.0,71,0.00,,,0.00,Weather View 32 v70,2013-12-18 03:27:00,
2013-12-17 21:32:00,24.4,16.3,30.17,ESE,112,2.0,6.0,71,0.00,,,0.00,Weather View 32 v70,2013-12-18 03:32:00,
2013-12-17 21:37:00,24.7,16.3,30.17,ESE,112,2.0,6.0,70,0.00,,,0.00,Weather View 32 v70,2013-12-18 03:37:00,
2013-12-17 21:42:00,25.1,16.7,30.17,ESE,112,3.0,6.0,70,0.00,,,0.00,Weather View 32 v70,2013-12-18 03:42:00,
2013-12-17 21:47:00,25.3,16.6,30.17,ESE,112,4.0,6.0,69,0.00,,,0.00,Weather View 32 v70,2013-12-18 03:47:00,
2013-12-17 21:52:00,25.1,16.7,30.16,SE,135,3.0,6.0,70,0.00,,,0.00,Weather View 32 v70,2013-12-18 03:52:00,
2013-12-17 21:57:00,25.2,16.5,30.16,ESE,112,4.0,6.0,69,0.00,,,0.00,Weather View 32 v70,2013-12-18 03:57:00,
2013-12-17 22:02:00,25.6,16.5,30.16,ESE,112,5.0,7.0,68,0.00,,,0.00,Weather View 32 v70,2013-12-18 04:02:00,
2013-12-17 22:07:00,25.6,16.5,30.16,SE,135,3.0,7.0,68,0.00,,,0.00,Weather View 32 v70,2013-12-18 04:07:00,
2013-12-17 22:12:00,25.5,16.4,30.16,SE,135,3.0,7.0,68,0.00,,,0.00,Weather View 32 v70,2013-12-18 04:12:00,
2013-12-17 22:17:00,25.9,16.5,30.16,ESE,112,6.0,7.0,67,0.00,,,0.00,Weather View 32 v70,2013-12-18 04:17:00,
2013-12-17 22:22:00,26.4,16.6,30.15,SE,135,4.0,7.0,66,0.00,,,0.00,Weather View 32 v70,2013-12-18 04:22:00,
2013-12-17 22:27:00,26.7,16.5,30.14,SE,135,3.0,7.0,65,0.00,,,0.00,Weather View 32 v70,2013-12-18 04:27:00,
2013-12-17 22:32:00,26.8,16.6,30.14,ESE,112,5.0,7.0,65,0.00,,,0.00,Weather View 32 v70,2013-12-18 04:32:00,
2013-12-17 22:37:00,27.1,16.5,30.14,SE,135,6.0,7.0,64,0.00,,,0.00,Weather View 32 v70,2013-12-18 04:37:00,
2013-12-17 22:42:00,27.3,16.4,30.13,ESE,112,5.0,8.0,63,0.00,,,0.00,Weather View 32 v70,2013-12-18 04:42:00,
2013-12-17 22:47:00,27.2,16.3,30.13,ESE,112,7.0,8.0,63,0.00,,,0.00,Weather View 32 v70,2013-12-18 04:47:00,
2013-12-17 22:52:00,27.4,16.1,30.12,ESE,112,6.0,8.0,62,0.00,,,0.00,Weather View 32 v70,2013-12-18 04:52:00,
2013-12-17 22:57:00,27.3,15.6,30.12,ESE,112,5.0,8.0,61,0.00,,,0.00,Weather View 32 v70,2013-12-18 04:57:00,
2013-12-17 23:01:00,27.2,15.5,30.12,ESE,112,2.0,8.0,61,0.00,,,0.00,Weather View 32 v70,2013-12-18 05:01:00,
2013-12-17 23:06:00,27.1,15.4,30.12,SE,135,3.0,9.0,61,0.00,,,0.00,Weather View 32 v70,2013-12-18 05:06:00,
2013-12-17 23:11:00,26.7,15.4,30.12,ESE,112,3.0,9.0,62,0.00,,,0.00,Weather View 32 v70,2013-12-18 05:11:00,
2013-12-17 23:16:00,26.5,15.6,30.11,SE,135,2.0,9.0,63,0.00,,,0.00,Weather View 32 v70,2013-12-18 05:16:00,
2013-12-17 23:21:00,26.3,15.4,30.11,South,180,3.0,9.0,63,0.00,,,0.00,Weather View 32 v70,2013-12-18 05:21:00,
2013-12-17 23:26:00,26.2,15.3,30.11,ESE,112,2.0,9.0,63,0.00,,,0.00,Weather View 32 v70,2013-12-18 05:26:00,
2013-12-17 23:31:00,26.3,15.8,30.12,ESE,112,4.0,9.0,64,0.00,,,0.00,Weather View 32 v70,2013-12-18 05:31:00,
2013-12-17 23:36:00,26.5,15.6,30.10,ESE,112,5.0,9.0,63,0.00,,,0.00,Weather View 32 v70,2013-12-18 05:36:00,
2013-12-17 23:41:00,26.8,15.9,30.10,ESE,112,6.0,9.0,63,0.00,,,0.00,Weather View 32 v70,2013-12-18 05:41:00,
2013-12-17 23:46:00,27.3,16.0,30.09,ESE,112,6.0,9.0,62,0.00,,,0.00,Weather View 32 v70,2013-12-18 05:46:00,
2013-12-17 23:51:00,27.5,16.2,30.09,ESE,112,2.0,10.0,62,0.00,,,0.00,Weather View 32 v70,2013-12-18 05:51:00,
2013-12-17 23:56:00,27.9,16.2,30.08,East,90,7.0,11.0,61,0.00,,,0.00,Weather View 32 v70,2013-12-18 05:56:00,